Catawba, North Carolina
Current Conditions -  °F | °C
As of 7:15 PM on Sunday 23 Nov 2014 (Local Time) from KSVH Reporting Station
Heavy Rain Heavy Rain  
Wind Chill: 44°   Ceiling: 300
Heat Index: 46°   Visibility: 2mi
Dew Point: 46°   Wind: 6mph
Humidity: 99%   Direction: 40°NE
Pressure: 29.8"   Gusts: NA
Location:  35.71°N, 81.08°W
Report Text: KSVH 240015Z AUTO 04005KT 2SM +RA OVC003 08/08 A2980 RMK AO2 P0002 T00800078
Loading
Personal Weather Stations






























Interactive Weather Map New forecast layout! Learn more

10-Day Weather Forecast

Advertisements
Track Severe Weather on mobile